ELLXEDMA

Guest
Details From ELLX - Luxembourg
To EDMA - Augsburg
Flight Number -
Tags generated
Created
Modified
Stats Distance 199 nm / 369 km
Max Altitude 21,600 ft / 6,584 m
Waypoints 3
Social Downloads 0
Likes 0
Share VATSIM

Download

Looking for another format? Having issues loading an existing format? Contact us
Advertisement - Login to hide

Notes

Basic altitude profile: - Ascent Rate: 2500ft/min - Ascent Speed: 250kts - Cruise Altitude: 35000ft - Cruise Speed: 420kts - Descent Rate: 1500ft/min - Descent Speed: 250kts Options: - Use NATs: yes - Use PACOTS: yes - Use low airways: yes - Use high airways: yes

Route

ELLX BADLI EDMA

ID Type Via Altitude Latitude Longitude Leg Dist Tot Dist Heading (true) Name
O ELLX APT - 0 ft / 0 m 49.62660˚ 6.21151˚ - 0 nm - Luxembourg
BADLI FIX - 21,600 ft / 6,584 m 49.06361˚ 8.44750˚ 93 nm 93 nm 110° / 112° -
O EDMA APT - 0 ft / 0 m 48.42424˚ 10.93428˚ 105 nm 199 nm 110° / 112° Augsburg

Altitude Profile

Advertisement - Login to hide

Weather


0- 5 10 15 20 25 30 35+ Temperature / ° C

Clouds and Precipitation
Forecast for 2017-12-14 18:00 UTC. Updated 2 hours ago

Ground ~20,000 ft ~40,000 ft Winds

ELLX

Details ICAO ELLX (LUX)
Name Luxembourg
Region Luxembourg
Timezone Europe/Luxembourg (UTC+1.0)
Stats Elevation 1,158 ft / 353 m (AMSL)
Location 49.626599° 6.211506°
Runways 1
Magnetic Variation 1.690° E

METAR

ELLX 141850Z 20009KT 9999 -SHRA BKN007 03/02 Q0992 NOSIG

Decode

TAF

TAF ELLX 141700Z 1418/1524 23012KT 9999 BKN015 TEMPO 1418/1515 25015G25KT 5000 SHRAGS SHRASN SCT006 BKN012TCU

Decode

Departure Runways

ID Width Length Bearing (true) Bearing (mag) Surface Threshold Offset Overrun Length
06 197 ft / 60 m 13,135 ft / 4,004 m 60.14° 58.45° Asphalt 0 ft / 0 m 0 ft / 0 m
24 197 ft / 60 m 13,135 ft / 4,004 m 240.18° 238.49° Asphalt 0 ft / 0 m 180 ft / 55 m

EDMA

Details ICAO EDMA (AGB)
Name Augsburg
Region Germany - Civil
Timezone Europe/Berlin (UTC+1.0)
Stats Elevation 1,515 ft / 462 m (AMSL)
Location 48.424245° 10.934277°
Runways 2
Magnetic Variation 2.954° E

METAR

EDMA 141850Z 20008KT 9999 FEW025 BKN100 03/M00 Q0998

Decode

TAF

Not found

Destination Runways

ID Width Length Bearing (true) Bearing (mag) Surface Threshold Offset Overrun Length
07 98 ft / 30 m 4,186 ft / 1,276 m 71.38° 68.43° Asphalt 0 ft / 0 m 164 ft / 50 m
07L 100 ft / 30 m 3,320 ft / 1,012 m 71.47° 68.52° Grass 0 ft / 0 m 0 ft / 0 m
25 98 ft / 30 m 4,186 ft / 1,276 m 251.39° 248.44° Asphalt 0 ft / 0 m 164 ft / 50 m
25R 100 ft / 30 m 3,320 ft / 1,012 m 251.48° 248.53° Grass 0 ft / 0 m 0 ft / 0 m

Approach Navaids

Runway Type Ident Frequency Range Bearing (true) Bearing (mag) Slope Elevation
25 Localiser AUG 108.50 MHz 18 nm / 33 km 251.39° 248.43° - 1,510 ft / 460 m (AMSL)
25 Glidescope AUG 108.50 MHz 10 nm / 19 km 251.39° 248.43° 3.50° 1,515 ft / 462 m (AMSL)